Time;durP1;ratioP1;P1;durP2;ratioP2;P2;SDS_P1;SDS_P2;PMS_P1;PMS_P2;Temp;Humidity;BMP_temperature;BMP_pressure;BME280_temperature;BME280_humidity;BME280_pressure;Samples;Min_cycle;Max_cycle;Signal;HPM_P1;HPM_P2
2020/02/21 00:00:52;;;;;;;2.4;0.6;;;;;;;8.63;73.06836;1007.801;;;;
2020/02/21 00:03:15;;;;;;;1;0.7;;;;;;;8.46;71.19434;1007.827;;;;
2020/02/21 00:05:41;;;;;;;0.9;0.6;;;;;;;8.32;71.89941;1007.989;;;;
2020/02/21 00:08:06;;;;;;;0.5;0.5;;;;;;;8.3;71.23633;1008.039;;;;
2020/02/21 00:10:31;;;;;;;1.5;0.7;;;;;;;8.24;69.96191;1008.04;;;;
2020/02/21 00:12:56;;;;;;;1.6;0.7;;;;;;;8.1;68.53809;1008.04;;;;
2020/02/21 00:15:21;;;;;;;1.7;0.7;;;;;;;7.95;68.9248;1008.263;;;;
2020/02/21 00:17:46;;;;;;;2.8;0.5;;;;;;;7.92;68.38574;1008.33;;;;
2020/02/21 00:20:11;;;;;;;1.3;0.6;;;;;;;7.93;68.91113;1008.468;;;;
2020/02/21 00:22:36;;;;;;;1.1;0.7;;;;;;;7.85;68.06738;1008.502;;;;
2020/02/21 00:25:02;;;;;;;2.1;0.6;;;;;;;7.79;67.77246;1008.58;;;;
2020/02/21 00:27:27;;;;;;;0.9;0.7;;;;;;;7.86;68.5791;1008.76;;;;
2020/02/21 00:29:52;;;;;;;2.5;0.8;;;;;;;7.71;68.37402;1008.852;;;;
2020/02/21 00:32:17;;;;;;;1.1;0.6;;;;;;;7.57;68.28418;1008.67;;;;
2020/02/21 00:34:42;;;;;;;1.4;0.8;;;;;;;7.58;68.69531;1008.946;;;;
2020/02/21 00:37:07;;;;;;;1.3;0.6;;;;;;;7.5;69.33008;1008.897;;;;
2020/02/21 00:39:32;;;;;;;1.3;0.7;;;;;;;7.48;69.40527;1009.006;;;;
2020/02/21 00:42:02;;;;;;;1.2;0.8;;;;;;;7.62;69.38477;1008.957;;;;
2020/02/21 00:44:25;;;;;;;0.9;0.6;;;;;;;7.53;69.74512;1009.05;;;;
2020/02/21 00:46:48;;;;;;;1.5;0.6;;;;;;;7.47;70.05371;1009.076;;;;
2020/02/21 00:49:13;;;;;;;1.9;0.6;;;;;;;7.53;70.1416;1009.074;;;;
2020/02/21 00:51:38;;;;;;;1.5;0.8;;;;;;;7.51;70.09473;1009.112;;;;
2020/02/21 00:54:03;;;;;;;1.2;0.6;;;;;;;7.45;70.78809;1009.273;;;;
2020/02/21 00:56:28;;;;;;;1.2;0.6;;;;;;;7.43;70.14844;1009.363;;;;
2020/02/21 00:58:53;;;;;;;2;0.7;;;;;;;7.52;70.28809;1009.345;;;;
2020/02/21 01:01:18;;;;;;;1;0.6;;;;;;;7.46;70.4707;1009.347;;;;
2020/02/21 01:03:44;;;;;;;2.8;0.8;;;;;;;7.46;70.82324;1009.506;;;;
2020/02/21 01:06:09;;;;;;;2.1;0.7;;;;;;;7.43;71.01172;1009.534;;;;
2020/02/21 01:08:37;;;;;;;2;0.7;;;;;;;7.29;70.95605;1009.687;;;;
2020/02/21 01:11:24;;;;;;;1.6;0.7;;;;;;;7.24;71.33301;1009.716;;;;
2020/02/21 01:13:26;;;;;;;1.5;0.7;;;;;;;7.11;72.00488;1009.775;;;;
2020/02/21 01:15:49;;;;;;;1.8;0.7;;;;;;;7.03;72.92188;1009.811;;;;
2020/02/21 01:18:14;;;;;;;1.9;0.9;;;;;;;6.94;72.63477;1009.783;;;;
2020/02/21 01:20:41;;;;;;;1.2;0.7;;;;;;;6.92;72.70898;1009.87;;;;
2020/02/21 01:23:05;;;;;;;1.5;0.9;;;;;;;6.95;72.8291;1009.969;;;;
2020/02/21 01:25:30;;;;;;;1.6;0.9;;;;;;;6.91;72.60547;1010.02;;;;
2020/02/21 01:28:19;;;;;;;2.6;0.9;;;;;;;6.86;73.51563;1010.106;;;;
2020/02/21 01:30:44;;;;;;;2.6;1.1;;;;;;;6.77;73.25293;1010.131;;;;
2020/02/21 01:33:09;;;;;;;1.4;0.9;;;;;;;6.77;73.09375;1010.146;;;;
2020/02/21 01:35:34;;;;;;;2.6;1;;;;;;;6.72;73.2998;1010.292;;;;
2020/02/21 01:37:59;;;;;;;2.8;0.9;;;;;;;6.7;73.19434;1010.26;;;;
2020/02/21 01:40:24;;;;;;;2.6;0.9;;;;;;;6.72;72.97266;1010.324;;;;
2020/02/21 01:42:50;;;;;;;3.1;0.9;;;;;;;6.81;72.96387;1010.423;;;;
2020/02/21 01:45:15;;;;;;;2.5;1;;;;;;;6.7;72.83203;1010.449;;;;
2020/02/21 01:47:40;;;;;;;2.2;0.9;;;;;;;6.75;72.85254;1010.444;;;;
2020/02/21 01:50:05;;;;;;;2.8;1.1;;;;;;;6.71;72.93555;1010.529;;;;
2020/02/21 01:52:30;;;;;;;3.1;1.1;;;;;;;6.57;73.49121;1010.544;;;;
2020/02/21 01:54:55;;;;;;;2.7;1;;;;;;;6.57;73.87695;1010.608;;;;
2020/02/21 01:57:20;;;;;;;2.3;1;;;;;;;6.5;73.96582;1010.615;;;;
2020/02/21 01:59:45;;;;;;;4.8;1.1;;;;;;;6.46;74.86523;1010.729;;;;
2020/02/21 02:02:11;;;;;;;2.8;1.1;;;;;;;6.41;75.09375;1010.81;;;;
2020/02/21 02:07:01;;;;;;;2.9;1.1;;;;;;;6.26;75.64844;1010.809;;;;
2020/02/21 02:09:45;;;;;;;3.2;1.3;;;;;;;6.27;76.09082;1010.912;;;;
2020/02/21 02:12:00;;;;;;;3.8;1.1;;;;;;;6.33;75.55762;1010.836;;;;
2020/02/21 02:14:20;;;;;;;3.2;1.1;;;;;;;6.3;75.52832;1010.874;;;;
2020/02/21 02:16:42;;;;;;;3.3;1.1;;;;;;;6.36;75.47168;1010.997;;;;
2020/02/21 02:19:06;;;;;;;3.1;1.1;;;;;;;6.39;74.93359;1011.04;;;;
2020/02/21 02:21:31;;;;;;;3.7;1;;;;;;;6.4;75.15137;1011.135;;;;
2020/02/21 02:23:56;;;;;;;3.5;1.1;;;;;;;6.44;75.15918;1011.204;;;;
2020/02/21 02:26:22;;;;;;;2.5;0.8;;;;;;;6.49;74.99707;1011.192;;;;
2020/02/21 02:28:47;;;;;;;2.1;0.9;;;;;;;6.48;74.6875;1011.232;;;;
2020/02/21 02:31:12;;;;;;;3.2;0.9;;;;;;;6.39;75.00195;1011.237;;;;
2020/02/21 02:33:37;;;;;;;3.1;1;;;;;;;6.41;74.49316;1011.229;;;;
2020/02/21 02:36:02;;;;;;;4.1;1.1;;;;;;;6.41;74.46191;1011.278;;;;
2020/02/21 02:38:27;;;;;;;2.1;1;;;;;;;6.44;73.71875;1011.326;;;;
2020/02/21 02:40:52;;;;;;;3.4;1;;;;;;;6.39;73.83398;1011.228;;;;
2020/02/21 02:43:17;;;;;;;5.8;1.4;;;;;;;6.23;74.00977;1011.325;;;;
2020/02/21 02:45:43;;;;;;;4.6;1.2;;;;;;;6.2;73.94727;1011.281;;;;
2020/02/21 02:48:08;;;;;;;4;1.1;;;;;;;6.19;73.93555;1011.378;;;;
2020/02/21 02:50:33;;;;;;;3.6;1;;;;;;;6.18;73.46777;1011.39;;;;
2020/02/21 02:52:59;;;;;;;3.9;0.9;;;;;;;6.17;73.55762;1011.363;;;;
2020/02/21 02:55:26;;;;;;;4.4;1.2;;;;;;;6.11;73.42383;1011.367;;;;
2020/02/21 02:57:52;;;;;;;3.9;1.1;;;;;;;6.06;73.53906;1011.39;;;;
2020/02/21 03:01:20;;;;;;;3.3;1;;;;;;;6.01;74.1416;1011.399;;;;
2020/02/21 03:02:47;;;;;;;4;1.1;;;;;;;6.01;73.88086;1011.247;;;;
2020/02/21 03:05:03;;;;;;;3.3;1.2;;;;;;;6.04;73.76074;1011.315;;;;
2020/02/21 03:07:29;;;;;;;4.4;1.2;;;;;;;5.88;73.57617;1011.362;;;;
2020/02/21 03:09:54;;;;;;;4.2;1.2;;;;;;;5.82;73.82715;1011.397;;;;
2020/02/21 03:12:19;;;;;;;4.2;1.4;;;;;;;5.86;73.35547;1011.427;;;;
2020/02/21 03:14:44;;;;;;;4.9;1.4;;;;;;;5.87;72.9043;1011.383;;;;
2020/02/21 03:17:09;;;;;;;2.5;1;;;;;;;5.75;73.68945;1011.4;;;;
2020/02/21 03:19:34;;;;;;;4.1;1.1;;;;;;;5.78;73.16211;1011.506;;;;
2020/02/21 03:21:59;;;;;;;4.4;1.3;;;;;;;5.75;73.50879;1011.503;;;;
2020/02/21 03:24:24;;;;;;;3.2;1.3;;;;;;;5.79;72.78906;1011.599;;;;
2020/02/21 03:26:49;;;;;;;3.6;1.4;;;;;;;5.78;72.73242;1011.658;;;;
2020/02/21 03:29:14;;;;;;;3.9;1.1;;;;;;;5.76;73.02344;1011.791;;;;
2020/02/21 03:31:39;;;;;;;4.7;1.3;;;;;;;5.63;73.2832;1011.79;;;;
2020/02/21 03:34:04;;;;;;;6.5;1.4;;;;;;;5.64;73.17188;1011.868;;;;
2020/02/21 03:36:29;;;;;;;3.8;1.2;;;;;;;5.63;73.04395;1011.953;;;;
2020/02/21 03:38:54;;;;;;;3.4;1;;;;;;;5.61;72.99707;1011.98;;;;
2020/02/21 03:41:19;;;;;;;3.6;1.2;;;;;;;5.54;73.33594;1012.06;;;;
2020/02/21 03:43:45;;;;;;;2.5;1;;;;;;;5.53;73.28906;1012.071;;;;
2020/02/21 03:46:10;;;;;;;5.5;1.2;;;;;;;5.54;73.17871;1012.185;;;;
2020/02/21 03:49:30;;;;;;;4.3;1.1;;;;;;;5.58;72.90234;1012.206;;;;
2020/02/21 03:51:55;;;;;;;5;1.5;;;;;;;5.56;73.13477;1012.235;;;;
2020/02/21 03:54:20;;;;;;;4.4;1.2;;;;;;;5.5;72.75293;1012.243;;;;
2020/02/21 03:56:45;;;;;;;4.6;1.2;;;;;;;5.55;72.31934;1012.325;;;;
2020/02/21 03:59:10;;;;;;;3.8;1.3;;;;;;;5.59;72.33594;1012.31;;;;
2020/02/21 04:02:35;;;;;;;4;1.1;;;;;;;5.57;72.1084;1012.379;;;;
2020/02/21 04:05:00;;;;;;;4.3;1.2;;;;;;;5.53;72.24805;1012.467;;;;
2020/02/21 04:07:26;;;;;;;4;1.2;;;;;;;5.53;72.75684;1012.519;;;;
2020/02/21 04:09:51;;;;;;;3.6;1.2;;;;;;;5.42;73.01074;1012.582;;;;
2020/02/21 04:12:16;;;;;;;4;1.3;;;;;;;5.39;73.25488;1012.622;;;;
2020/02/21 04:14:41;;;;;;;5.7;1.6;;;;;;;5.45;72.86816;1012.672;;;;
2020/02/21 04:17:06;;;;;;;4;0.9;;;;;;;5.47;72.80273;1012.636;;;;
2020/02/21 04:19:31;;;;;;;3.9;1.3;;;;;;;5.46;73.11816;1012.604;;;;
2020/02/21 04:21:56;;;;;;;3.7;1;;;;;;;5.42;73.71191;1012.708;;;;
2020/02/21 04:24:21;;;;;;;4.4;1.4;;;;;;;5.45;73.25293;1012.679;;;;
2020/02/21 04:26:46;;;;;;;3.3;1.2;;;;;;;5.37;73.73828;1012.713;;;;
2020/02/21 04:29:15;;;;;;;6.2;1.2;;;;;;;5.35;74.24219;1012.73;;;;
2020/02/21 04:31:45;;;;;;;4.3;1.3;;;;;;;5.32;74.21289;1012.778;;;;
2020/02/21 04:34:10;;;;;;;4.5;1.3;;;;;;;5.27;74.5791;1012.918;;;;
2020/02/21 04:36:35;;;;;;;3.9;1.4;;;;;;;5.24;74.94727;1012.932;;;;
2020/02/21 04:39:00;;;;;;;4.1;1.1;;;;;;;5.18;75.33301;1013.022;;;;
2020/02/21 04:41:25;;;;;;;4.3;1.3;;;;;;;5.16;75.73535;1013.035;;;;
2020/02/21 04:43:50;;;;;;;5.2;1.3;;;;;;;5.17;75.63574;1013.07;;;;
2020/02/21 04:46:16;;;;;;;5.6;1.4;;;;;;;5.14;75.73047;1013.188;;;;
2020/02/21 04:48:41;;;;;;;4.7;1.2;;;;;;;5.09;75.96191;1013.215;;;;
2020/02/21 04:51:06;;;;;;;6.7;1.6;;;;;;;5.07;75.75391;1013.232;;;;
2020/02/21 04:53:31;;;;;;;5.7;1.5;;;;;;;5.08;75.62109;1013.33;;;;
2020/02/21 04:55:56;;;;;;;7.2;1.5;;;;;;;5.09;75.52051;1013.34;;;;
2020/02/21 04:58:21;;;;;;;4.5;1.3;;;;;;;5.11;75.54492;1013.396;;;;
2020/02/21 05:00:55;;;;;;;6.6;1.5;;;;;;;5.04;75.91797;1013.479;;;;
2020/02/21 05:03:21;;;;;;;5.6;1.8;;;;;;;5.07;75.71777;1013.514;;;;
2020/02/21 05:05:46;;;;;;;6.4;1.5;;;;;;;5.08;75.87012;1013.598;;;;
2020/02/21 05:08:11;;;;;;;5.3;1.5;;;;;;;5.04;75.72461;1013.677;;;;
2020/02/21 05:10:36;;;;;;;5;1.7;;;;;;;5.06;75.84277;1013.721;;;;
2020/02/21 05:13:01;;;;;;;6;1.7;;;;;;;5.01;76.08105;1013.759;;;;
2020/02/21 05:15:26;;;;;;;7.2;1.8;;;;;;;5.03;76.17676;1013.668;;;;
2020/02/21 05:17:51;;;;;;;7.9;1.9;;;;;;;5.06;75.72949;1013.777;;;;
2020/02/21 05:20:17;;;;;;;4.8;1.4;;;;;;;5.03;75.62305;1013.896;;;;
2020/02/21 05:22:44;;;;;;;5.4;1.5;;;;;;;5.02;75.91309;1013.903;;;;
2020/02/21 05:25:07;;;;;;;5.5;1.7;;;;;;;5.14;75.04102;1013.954;;;;
2020/02/21 05:27:32;;;;;;;6.4;1.6;;;;;;;5.24;75.09375;1014.002;;;;
2020/02/21 05:29:57;;;;;;;5;1.5;;;;;;;5.22;74.78418;1014.026;;;;
2020/02/21 05:32:22;;;;;;;5.9;1.9;;;;;;;5.14;74.90723;1014.059;;;;
2020/02/21 05:34:47;;;;;;;5.9;1.8;;;;;;;5.11;75.25098;1014.121;;;;
2020/02/21 05:37:12;;;;;;;6.5;1.7;;;;;;;5.11;75.28516;1014.16;;;;
2020/02/21 05:39:37;;;;;;;7.2;1.7;;;;;;;5.08;75.57422;1014.144;;;;
2020/02/21 05:42:02;;;;;;;5.5;1.7;;;;;;;5;75.52637;1014.138;;;;
2020/02/21 05:44:27;;;;;;;6.7;1.9;;;;;;;4.99;75.70508;1014.145;;;;
2020/02/21 05:46:53;;;;;;;6.4;1.9;;;;;;;4.93;75.67188;1014.185;;;;
2020/02/21 05:49:18;;;;;;;5.9;1.5;;;;;;;4.98;75.68066;1014.154;;;;
2020/02/21 05:51:43;;;;;;;5.5;1.6;;;;;;;4.97;75.83887;1014.19;;;;
2020/02/21 05:54:08;;;;;;;5.4;1.7;;;;;;;4.92;76.19141;1014.205;;;;
2020/02/21 05:56:33;;;;;;;7.9;2.2;;;;;;;4.99;75.8291;1014.193;;;;
2020/02/21 05:58:58;;;;;;;5.9;2.3;;;;;;;4.89;76.33203;1014.219;;;;
2020/02/21 06:01:23;;;;;;;4.8;1.9;;;;;;;4.99;76.15723;1014.203;;;;
2020/02/21 06:03:48;;;;;;;9.4;2.1;;;;;;;4.92;76.58496;1014.279;;;;
2020/02/21 06:06:13;;;;;;;7.1;1.9;;;;;;;4.92;76.84473;1014.299;;;;
2020/02/21 06:08:38;;;;;;;9;2.3;;;;;;;4.94;76.80469;1014.319;;;;
2020/02/21 06:11:03;;;;;;;8;1.9;;;;;;;5;76.87207;1014.459;;;;
2020/02/21 06:13:28;;;;;;;5.3;1.9;;;;;;;5.1;76.37988;1014.545;;;;
2020/02/21 06:15:53;;;;;;;6.4;1.7;;;;;;;5;76.89355;1014.589;;;;
2020/02/21 06:18:19;;;;;;;5.4;1.8;;;;;;;5.11;76.7334;1014.584;;;;
2020/02/21 06:20:44;;;;;;;6;1.9;;;;;;;5.06;76.99512;1014.63;;;;
2020/02/21 06:23:09;;;;;;;5.9;2.7;;;;;;;5.18;77.21973;1014.749;;;;
2020/02/21 06:25:34;;;;;;;7.7;3;;;;;;;5.21;76.80762;1014.847;;;;
2020/02/21 06:27:59;;;;;;;8.5;4.4;;;;;;;5.3;76.41504;1014.816;;;;
2020/02/21 06:30:24;;;;;;;7.3;2.7;;;;;;;5.24;76.49609;1014.839;;;;
2020/02/21 06:32:49;;;;;;;6.5;2.4;;;;;;;5.3;76.6543;1014.9;;;;
2020/02/21 06:35:14;;;;;;;9;2.1;;;;;;;5.27;76.9082;1014.992;;;;
2020/02/21 06:37:39;;;;;;;7.7;1.9;;;;;;;5.54;76.08691;1015.05;;;;
2020/02/21 06:40:05;;;;;;;6.3;1.8;;;;;;;5.46;76.42383;1015.094;;;;
2020/02/21 06:42:29;;;;;;;7.5;2;;;;;;;5.43;76.36035;1015.1;;;;
2020/02/21 06:44:55;;;;;;;4.7;1.7;;;;;;;5.54;76.13086;1015.163;;;;
2020/02/21 06:47:20;;;;;;;6.9;2.1;;;;;;;5.42;76.44922;1015.155;;;;
2020/02/21 06:49:45;;;;;;;5.5;1.8;;;;;;;5.42;76.33594;1015.18;;;;
2020/02/21 06:52:10;;;;;;;6;2.1;;;;;;;5.37;76.74512;1015.255;;;;
2020/02/21 06:54:35;;;;;;;6.6;2.1;;;;;;;5.37;76.72363;1015.218;;;;
2020/02/21 06:57:00;;;;;;;6.6;2.2;;;;;;;5.34;76.78516;1015.281;;;;
2020/02/21 06:59:33;;;;;;;5.2;2.1;;;;;;;5.25;77.32324;1015.345;;;;
2020/02/21 07:01:53;;;;;;;7.6;2;;;;;;;5.17;77.63672;1015.466;;;;
2020/02/21 07:04:16;;;;;;;5.9;1.9;;;;;;;5.19;77.85645;1015.531;;;;
2020/02/21 07:06:41;;;;;;;5.3;1.9;;;;;;;5.13;77.6416;1015.582;;;;
2020/02/21 07:09:06;;;;;;;6.2;2;;;;;;;5.19;77.76367;1015.679;;;;
2020/02/21 07:11:31;;;;;;;7.6;2;;;;;;;5.11;78.0791;1015.744;;;;
2020/02/21 07:13:56;;;;;;;7.7;2.1;;;;;;;5.25;77.50293;1015.829;;;;
2020/02/21 07:16:22;;;;;;;6.3;2.4;;;;;;;5.17;77.79492;1015.881;;;;
2020/02/21 07:18:47;;;;;;;6.7;2.2;;;;;;;5.1;78.0752;1015.924;;;;
2020/02/21 07:21:12;;;;;;;8.1;2.3;;;;;;;5.2;77.76563;1015.93;;;;
2020/02/21 07:23:37;;;;;;;6.7;2.2;;;;;;;5.21;77.58789;1015.923;;;;
2020/02/21 07:26:02;;;;;;;7.8;2.5;;;;;;;5.29;77.52246;1015.964;;;;
2020/02/21 07:28:27;;;;;;;7.9;2.3;;;;;;;5.3;77.55762;1016.038;;;;
2020/02/21 07:30:52;;;;;;;7.9;2.6;;;;;;;5.31;77.67383;1016.052;;;;
2020/02/21 07:33:18;;;;;;;6.6;2;;;;;;;5.61;76.4834;1015.982;;;;
2020/02/21 07:35:43;;;;;;;7.5;2.4;;;;;;;5.91;75.99219;1016.06;;;;
2020/02/21 07:38:08;;;;;;;6.2;2.1;;;;;;;6.24;74.0459;1016.153;;;;
2020/02/21 07:40:33;;;;;;;7.4;2.3;;;;;;;6.68;72.41895;1016.202;;;;
2020/02/21 07:42:58;;;;;;;10.4;2.2;;;;;;;6.69;72.14941;1016.294;;;;
2020/02/21 07:45:24;;;;;;;6.6;2;;;;;;;6.59;71.97363;1016.265;;;;
2020/02/21 07:47:49;;;;;;;8.5;2.5;;;;;;;6.22;73.32715;1016.285;;;;
2020/02/21 07:50:14;;;;;;;10.3;2.2;;;;;;;6.04;74.43066;1016.229;;;;
2020/02/21 07:52:39;;;;;;;8.5;2.8;;;;;;;6.08;74.49512;1016.25;;;;
2020/02/21 07:55:04;;;;;;;6.5;2.3;;;;;;;5.98;74.94043;1016.316;;;;
2020/02/21 07:57:29;;;;;;;6.5;2.2;;;;;;;6.1;74.55469;1016.378;;;;
2020/02/21 07:59:54;;;;;;;8.3;2.7;;;;;;;5.88;75.05957;1016.334;;;;
2020/02/21 08:02:20;;;;;;;8.3;2.4;;;;;;;5.97;75.50586;1016.409;;;;
2020/02/21 08:04:45;;;;;;;6.9;2.3;;;;;;;6.23;74.44043;1016.424;;;;
2020/02/21 08:07:10;;;;;;;9.2;2.4;;;;;;;6.66;73.1543;1016.466;;;;
2020/02/21 08:09:35;;;;;;;8.9;2.2;;;;;;;6.56;73.0791;1016.467;;;;
2020/02/21 08:12:00;;;;;;;6.6;2.2;;;;;;;6.68;72.83984;1016.486;;;;
2020/02/21 08:14:25;;;;;;;7.6;2.1;;;;;;;7.03;71.85449;1016.508;;;;
2020/02/21 08:16:51;;;;;;;8.4;2.3;;;;;;;7.17;71.15234;1016.526;;;;
2020/02/21 08:19:16;;;;;;;9;2.1;;;;;;;7.35;70.69043;1016.494;;;;
2020/02/21 08:21:41;;;;;;;7.8;2.3;;;;;;;7.81;68.76563;1016.518;;;;
2020/02/21 08:24:06;;;;;;;7.2;2.6;;;;;;;7.43;69.91992;1016.56;;;;
2020/02/21 08:26:31;;;;;;;8.5;2.2;;;;;;;7.56;69.47559;1016.516;;;;
2020/02/21 08:28:56;;;;;;;8.5;2.1;;;;;;;7.4;69.9375;1016.486;;;;
2020/02/21 08:31:21;;;;;;;12.1;4.5;;;;;;;7.49;69.39746;1016.458;;;;
2020/02/21 08:33:51;;;;;;;8.4;3;;;;;;;7.57;69.2168;1016.424;;;;
2020/02/21 08:36:24;;;;;;;8.2;2.7;;;;;;;7.71;69.0791;1016.508;;;;
2020/02/21 08:38:38;;;;;;;12.1;2.7;;;;;;;8.37;67.38574;1016.495;;;;
2020/02/21 08:41:20;;;;;;;7.9;2.3;;;;;;;8.65;65.7207;1016.538;;;;
2020/02/21 08:43:45;;;;;;;11;2.6;;;;;;;9.29;63.52441;1016.5;;;;
2020/02/21 08:46:11;;;;;;;6.7;2.3;;;;;;;10.2;61.5293;1016.478;;;;
2020/02/21 08:48:36;;;;;;;7.8;2.1;;;;;;;11;58.60742;1016.53;;;;
2020/02/21 08:51:01;;;;;;;7.5;2.2;;;;;;;10.16;59.47754;1016.503;;;;
2020/02/21 08:53:26;;;;;;;7;2.2;;;;;;;9.79;61.09375;1016.541;;;;
2020/02/21 08:55:51;;;;;;;7.5;2.6;;;;;;;9.32;63.16309;1016.572;;;;
2020/02/21 08:58:18;;;;;;;8.3;2.4;;;;;;;10.47;60.69922;1016.481;;;;
2020/02/21 09:00:41;;;;;;;8;3.1;;;;;;;12.33;54.64746;1016.491;;;;
2020/02/21 09:03:07;;;;;;;6.5;2.1;;;;;;;12.56;52.56152;1016.599;;;;
2020/02/21 09:05:32;;;;;;;6.9;2.1;;;;;;;12.78;50.90918;1016.609;;;;
2020/02/21 09:07:57;;;;;;;7.2;1.9;;;;;;;13.58;53.33008;1016.66;;;;
2020/02/21 09:10:22;;;;;;;8.2;1.9;;;;;;;14.45;48.03125;1016.441;;;;
2020/02/21 09:12:47;;;;;;;6.9;2.3;;;;;;;12.26;52.87012;1016.553;;;;
2020/02/21 09:15:12;;;;;;;7.3;2.3;;;;;;;11.22;55.13965;1016.516;;;;
2020/02/21 09:17:37;;;;;;;8.1;2.4;;;;;;;11.88;54.5127;1016.538;;;;
2020/02/21 09:20:02;;;;;;;8;2.4;;;;;;;11.29;55.35547;1016.543;;;;
2020/02/21 09:22:27;;;;;;;8.6;2.7;;;;;;;10.97;55.99023;1016.599;;;;
2020/02/21 09:24:53;;;;;;;6.4;2.4;;;;;;;11.89;53.76563;1016.54;;;;
2020/02/21 09:27:20;;;;;;;6.9;2.2;;;;;;;10.23;57.53027;1016.55;;;;
2020/02/21 09:29:45;;;;;;;8.2;2.3;;;;;;;10.65;58.11328;1016.627;;;;
2020/02/21 09:32:10;;;;;;;9;2.3;;;;;;;10.29;56.89746;1016.637;;;;
2020/02/21 09:34:35;;;;;;;10.8;2.3;;;;;;;9.65;58.65234;1016.679;;;;
2020/02/21 09:37:00;;;;;;;9.6;2.3;;;;;;;9.57;60.32129;1016.685;;;;
2020/02/21 09:39:25;;;;;;;9.5;2.8;;;;;;;10.31;59.25781;1016.656;;;;
2020/02/21 09:41:50;;;;;;;10.1;2.8;;;;;;;10.42;58.35645;1016.654;;;;
2020/02/21 09:44:15;;;;;;;8.1;2.7;;;;;;;10.22;57.4375;1016.622;;;;
2020/02/21 09:46:40;;;;;;;8;2.3;;;;;;;10.28;57.65234;1016.689;;;;
2020/02/21 09:49:07;;;;;;;9.4;2.3;;;;;;;10.21;58.14551;1016.747;;;;
2020/02/21 09:51:34;;;;;;;8.7;2.4;;;;;;;9.73;59.94238;1016.755;;;;
2020/02/21 09:53:56;;;;;;;6.5;2.4;;;;;;;9.72;61.65527;1016.705;;;;
2020/02/21 09:56:21;;;;;;;8.6;2.8;;;;;;;10.55;58.05469;1016.672;;;;
2020/02/21 10:01:12;;;;;;;6.8;2.4;;;;;;;12.1;53.80469;1016.709;;;;
2020/02/21 10:03:36;;;;;;;5.7;2.1;;;;;;;11.13;54.42871;1016.691;;;;
2020/02/21 10:06:01;;;;;;;7.8;2.2;;;;;;;11.06;55.5332;1016.726;;;;
2020/02/21 10:08:27;;;;;;;8.8;2.5;;;;;;;10.62;58.31543;1016.724;;;;
2020/02/21 10:10:52;;;;;;;9.2;2.9;;;;;;;10.97;55.29004;1016.75;;;;
2020/02/21 10:13:17;;;;;;;6.7;2.4;;;;;;;9.77;58.72754;1016.742;;;;
2020/02/21 10:15:42;;;;;;;7.9;2.6;;;;;;;9.42;59.29492;1016.787;;;;
2020/02/21 10:18:08;;;;;;;7.6;2.1;;;;;;;9.8;58.43359;1016.82;;;;
2020/02/21 10:20:32;;;;;;;9.1;2.5;;;;;;;10.4;57.72461;1016.844;;;;
2020/02/21 10:22:58;;;;;;;7.2;2.3;;;;;;;10.66;57.20898;1016.841;;;;
2020/02/21 10:25:23;;;;;;;8.3;2.1;;;;;;;11.03;56.83496;1016.782;;;;
2020/02/21 10:27:48;;;;;;;7.1;2;;;;;;;10.35;56.74512;1016.806;;;;
2020/02/21 10:30:13;;;;;;;8.5;2.3;;;;;;;10.53;57.70703;1016.908;;;;
2020/02/21 10:32:38;;;;;;;8.5;2.3;;;;;;;11.07;54.47949;1016.919;;;;
2020/02/21 10:35:03;;;;;;;7.7;2;;;;;;;10.64;53.80664;1016.993;;;;
2020/02/21 10:37:30;;;;;;;7.8;2;;;;;;;10.14;57.01465;1016.996;;;;
2020/02/21 10:39:53;;;;;;;15.1;5.8;;;;;;;9.92;56.57422;1016.952;;;;
2020/02/21 10:42:19;;;;;;;8.6;2.6;;;;;;;10.11;55.3877;1017.029;;;;
2020/02/21 10:44:44;;;;;;;7.2;2.2;;;;;;;11.05;54.94629;1017.065;;;;
2020/02/21 10:47:09;;;;;;;5.9;1.9;;;;;;;11.12;55.20605;1017.011;;;;
2020/02/21 10:49:34;;;;;;;6.6;2.3;;;;;;;11.44;54.10059;1017.073;;;;
2020/02/21 10:51:59;;;;;;;9.3;2.1;;;;;;;11.19;51.8457;1017.063;;;;
2020/02/21 10:54:25;;;;;;;6.6;2;;;;;;;11.2;51.64063;1017.01;;;;
2020/02/21 10:56:49;;;;;;;6.4;2.2;;;;;;;10.87;53.79004;1016.889;;;;
2020/02/21 10:59:15;;;;;;;6.5;1.9;;;;;;;11.13;53.76367;1016.981;;;;
2020/02/21 11:01:40;;;;;;;7.5;2.1;;;;;;;10.97;52.90723;1017.088;;;;
2020/02/21 11:04:05;;;;;;;7.1;2.1;;;;;;;10.78;52.89551;1017.139;;;;
2020/02/21 11:06:30;;;;;;;10.5;2.6;;;;;;;10.43;54.96973;1017.075;;;;
2020/02/21 11:08:55;;;;;;;7.5;2;;;;;;;9.95;55.5957;1017.158;;;;
2020/02/21 11:11:20;;;;;;;9;2.2;;;;;;;9.52;55.98535;1017.12;;;;
2020/02/21 11:13:50;;;;;;;7.9;2.3;;;;;;;9.29;57.1084;1017.121;;;;
2020/02/21 11:16:11;;;;;;;9.3;2.4;;;;;;;9.76;57.02148;1017.066;;;;
2020/02/21 11:21:04;;;;;;;8.1;2.5;;;;;;;9.31;59.08691;1017.14;;;;
2020/02/21 11:23:30;;;;;;;7.8;2.1;;;;;;;9.67;58.1875;1017.167;;;;
2020/02/21 11:25:54;;;;;;;7.5;2.3;;;;;;;9.59;58.09766;1017.152;;;;
2020/02/21 11:28:19;;;;;;;8.9;2.4;;;;;;;9.55;58.21582;1017.175;;;;
2020/02/21 11:30:44;;;;;;;6.5;2.2;;;;;;;9.48;57.18945;1017.206;;;;
2020/02/21 11:33:09;;;;;;;8;2.3;;;;;;;9.39;59.54199;1017.12;;;;
2020/02/21 11:35:34;;;;;;;7.5;2;;;;;;;9.73;58.08008;1017.165;;;;
2020/02/21 11:37:59;;;;;;;6.9;2.3;;;;;;;9.65;58.37891;1017.147;;;;
2020/02/21 11:40:24;;;;;;;7.7;2.6;;;;;;;9.51;57.03418;1017.16;;;;
2020/02/21 11:42:49;;;;;;;4.8;2;;;;;;;9.37;58.13574;1017.138;;;;
2020/02/21 11:45:14;;;;;;;9;2.9;;;;;;;9.52;57.93945;1017.112;;;;
2020/02/21 11:47:40;;;;;;;7;2.1;;;;;;;9.5;58.01563;1017.066;;;;
2020/02/21 11:50:05;;;;;;;5.2;2;;;;;;;9.7;57.43652;1017.016;;;;
2020/02/21 11:52:30;;;;;;;7.2;2.3;;;;;;;10.29;55.96973;1017.027;;;;
2020/02/21 11:54:55;;;;;;;8.5;2.3;;;;;;;10.45;55.01855;1016.991;;;;
2020/02/21 11:57:20;;;;;;;8;2.1;;;;;;;10.04;55.56152;1016.953;;;;
2020/02/21 11:59:45;;;;;;;7.2;2.5;;;;;;;9.95;54.76172;1017.079;;;;
2020/02/21 12:02:10;;;;;;;7.5;2.3;;;;;;;10.11;52.91699;1016.967;;;;
2020/02/21 12:04:35;;;;;;;7.3;2;;;;;;;9.89;53.51855;1016.964;;;;
2020/02/21 12:07:01;;;;;;;5.6;1.8;;;;;;;9.71;54.14746;1016.811;;;;
2020/02/21 12:09:26;;;;;;;7.7;2.1;;;;;;;9.61;54.21484;1016.901;;;;
2020/02/21 12:11:51;;;;;;;5.2;1.9;;;;;;;9.75;53.49023;1016.858;;;;
2020/02/21 12:14:16;;;;;;;7.3;2.1;;;;;;;9.7;53.5752;1016.752;;;;
2020/02/21 12:16:41;;;;;;;7.5;2.4;;;;;;;9.68;55.0918;1016.638;;;;
2020/02/21 12:19:06;;;;;;;7.8;1.9;;;;;;;9.35;54.18262;1016.63;;;;
2020/02/21 12:21:31;;;;;;;8.2;3;;;;;;;9.84;54.75879;1016.553;;;;
2020/02/21 12:23:56;;;;;;;7.1;2.1;;;;;;;10.44;53.0498;1016.564;;;;
2020/02/21 12:26:22;;;;;;;6.7;2.1;;;;;;;10.71;51.75293;1016.605;;;;
2020/02/21 12:28:47;;;;;;;8.2;2.1;;;;;;;10.64;51.48145;1016.584;;;;
2020/02/21 12:31:12;;;;;;;8;2.1;;;;;;;10.58;50.89063;1016.631;;;;
2020/02/21 12:33:37;;;;;;;5.2;1.9;;;;;;;10.44;51.60645;1016.612;;;;
2020/02/21 12:36:02;;;;;;;6.1;1.8;;;;;;;10.09;52.45605;1016.621;;;;
2020/02/21 12:38:27;;;;;;;6.5;1.9;;;;;;;10.32;50.6543;1016.521;;;;
2020/02/21 12:40:52;;;;;;;6.9;1.7;;;;;;;10.3;52.75684;1016.448;;;;
2020/02/21 12:43:17;;;;;;;6.2;1.9;;;;;;;10.56;52.69727;1016.55;;;;
2020/02/21 12:45:42;;;;;;;5.9;2;;;;;;;11.04;51.75879;1016.511;;;;
2020/02/21 12:48:07;;;;;;;7.8;2.1;;;;;;;10.33;49.98047;1016.523;;;;
2020/02/21 12:50:33;;;;;;;6.1;1.6;;;;;;;9.75;51.27246;1016.531;;;;
2020/02/21 12:52:58;;;;;;;5.6;1.6;;;;;;;9.73;51.41895;1016.511;;;;
2020/02/21 12:55:23;;;;;;;5.9;1.8;;;;;;;10.08;51.54102;1016.424;;;;
2020/02/21 12:57:51;;;;;;;5.5;1.6;;;;;;;10.11;49.65625;1016.483;;;;
2020/02/21 13:00:13;;;;;;;5.6;1.6;;;;;;;10.53;50.55371;1016.423;;;;
2020/02/21 13:02:38;;;;;;;7.3;1.7;;;;;;;10.49;48.79688;1016.42;;;;
2020/02/21 13:05:03;;;;;;;5.4;1.7;;;;;;;10.3;49.2334;1016.313;;;;
2020/02/21 13:07:28;;;;;;;5.2;1.6;;;;;;;9.95;49.91309;1016.335;;;;
2020/02/21 13:09:54;;;;;;;6.9;1.7;;;;;;;10.31;50.25391;1016.282;;;;
2020/02/21 13:12:19;;;;;;;7;1.6;;;;;;;10.48;49.75586;1016.242;;;;
2020/02/21 13:14:44;;;;;;;5.9;1.6;;;;;;;10.73;47.89648;1016.129;;;;
2020/02/21 13:17:09;;;;;;;6.1;1.5;;;;;;;10.62;47.06055;1015.977;;;;
2020/02/21 13:19:34;;;;;;;5.7;1.7;;;;;;;10.35;48.19727;1016.116;;;;
2020/02/21 13:21:59;;;;;;;7.4;1.7;;;;;;;10.52;49.86523;1015.949;;;;
2020/02/21 13:24:26;;;;;;;6.4;2;;;;;;;10.7;48.96875;1015.962;;;;
2020/02/21 13:26:49;;;;;;;5;1.5;;;;;;;10.8;46.79297;1015.964;;;;
2020/02/21 13:29:14;;;;;;;6.6;1.6;;;;;;;10.43;49.44141;1015.939;;;;
2020/02/21 13:31:40;;;;;;;7.7;2;;;;;;;10.22;48.43457;1015.946;;;;
2020/02/21 13:34:05;;;;;;;4.5;1.7;;;;;;;10.75;49.14746;1015.897;;;;
2020/02/21 13:36:30;;;;;;;4.1;1.6;;;;;;;10.44;47.47461;1015.951;;;;
2020/02/21 13:39:01;;;;;;;5.4;1.7;;;;;;;10.69;48.21191;1015.943;;;;
2020/02/21 13:41:25;;;;;;;6.2;1.7;;;;;;;10.95;47.36914;1015.916;;;;
2020/02/21 13:43:50;;;;;;;4.8;1.7;;;;;;;11.11;46.07031;1015.963;;;;
2020/02/21 13:46:16;;;;;;;6.7;1.6;;;;;;;10.75;48.25293;1015.873;;;;
2020/02/21 13:48:41;;;;;;;6.7;2;;;;;;;10.75;48.0127;1015.84;;;;
2020/02/21 13:51:06;;;;;;;6.6;1.7;;;;;;;10.98;46.0332;1015.875;;;;
2020/02/21 13:53:31;;;;;;;6.2;1.8;;;;;;;10.86;46.24902;1015.802;;;;
2020/02/21 13:58:21;;;;;;;6.1;1.6;;;;;;;10.9;48.20117;1015.726;;;;
2020/02/21 14:00:47;;;;;;;3.4;1.6;;;;;;;11.13;46.16406;1015.715;;;;
2020/02/21 14:03:12;;;;;;;5.5;2;;;;;;;11.12;46.85059;1015.73;;;;
2020/02/21 14:05:37;;;;;;;4.6;1.4;;;;;;;11.28;46.22559;1015.712;;;;
2020/02/21 14:08:02;;;;;;;6.3;1.6;;;;;;;11.33;46.08008;1015.572;;;;
2020/02/21 14:10:33;;;;;;;6.2;1.6;;;;;;;11.64;46.27441;1015.742;;;;
2020/02/21 14:12:58;;;;;;;7.7;1.7;;;;;;;11.67;45.72754;1015.8;;;;
2020/02/21 14:15:23;;;;;;;5.2;1.9;;;;;;;11.59;44.50293;1015.729;;;;
2020/02/21 14:17:48;;;;;;;4.7;1.6;;;;;;;11.4;44.2998;1015.71;;;;
2020/02/21 14:20:14;;;;;;;5.2;1.6;;;;;;;11.71;46.66113;1015.617;;;;
2020/02/21 14:22:39;;;;;;;5.6;1.6;;;;;;;11.48;45.23633;1015.668;;;;
2020/02/21 14:25:04;;;;;;;6.3;1.6;;;;;;;11.07;45.41211;1015.533;;;;
2020/02/21 14:27:29;;;;;;;6.5;1.9;;;;;;;11.08;46.12305;1015.556;;;;
2020/02/21 14:29:59;;;;;;;6.7;1.6;;;;;;;11.23;46.29004;1015.532;;;;
2020/02/21 14:32:24;;;;;;;8.1;3;;;;;;;11.05;46.78516;1015.517;;;;
2020/02/21 14:34:49;;;;;;;3.8;1.6;;;;;;;10.84;45.91504;1015.601;;;;